US-0393 weather

CLOSED Elizabeth James Airport
Altoona, Pennsylvania, United States

Public forecast

Using degrees Fahrenheit for public forecast. Weather courtesy of forecast.io.

METAR (pilot weather report)

Closest report is Altoona Blair County Airport, 16.2 nm (30.0 km) S. Retrieved 2019/07/17 21:02 UTC (38 minutes ago):

KAOO 172102Z AUTO 20009KT 10SM SCT029 SCT037 BKN044 25/22 A2993 RMK AO2 RAE00 P0000 T02500222

TAF (pilot weather forecast)

Closest forecast is Altoona Blair County Airport, 16.2 nm (30.0 km) S. Retrieved 2019/07/17 18:48 UTC (3 hours ago):

TAF KAOO 171746Z 1718/1818 23008G15KT P6SM SCT040 TEMPO 1718/1721 P6SM -TSRA BKN040CB FM180000 20004KT P6SM VCSH SCT025 BKN040 FM180600 VRB04KT 4SM BR OVC015 FM180900 00000KT 4SM BR OVC007 FM181200 31005KT P6SM BKN025